Time;durP1;ratioP1;P1;durP2;ratioP2;P2;SDS_P1;SDS_P2;PMS_P1;PMS_P2;Temp;Humidity;BMP_temperature;BMP_pressure;BME280_temperature;BME280_humidity;BME280_pressure;Samples;Min_cycle;Max_cycle;Signal;HPM_P1;HPM_P2
2022/09/03 00:01:23;;;;;;;23.45;15.73;;;25.40;99.90;;;;;;4878430;29;20484;-67
2022/09/03 00:03:56;;;;;;;28.75;17.52;;;25.40;99.90;;;;;;4877728;29;20037;-67
2022/09/03 00:06:49;;;;;;;29.27;18.73;;;25.50;99.90;;;;;;4878434;29;20455;-67
2022/09/03 00:09:24;;;;;;;28.88;18.25;;;25.50;99.90;;;;;;4945054;29;20118;-67
2022/09/03 00:12:03;;;;;;;30.58;17.08;;;25.50;99.90;;;;;;4953684;29;20027;-67
2022/09/03 00:14:46;;;;;;;34.30;17.55;;;25.70;99.90;;;;;;4953444;29;20031;-67
2022/09/03 00:17:23;;;;;;;27.00;19.00;;;25.70;99.90;;;;;;4953522;29;20506;-67
2022/09/03 00:20:11;;;;;;;29.23;18.30;;;25.70;99.90;;;;;;4953445;29;20425;-67
2022/09/03 00:22:47;;;;;;;31.20;19.58;;;25.80;99.90;;;;;;4953333;29;20109;-67
2022/09/03 00:25:20;;;;;;;29.90;20.73;;;25.70;99.90;;;;;;5005056;28;20029;-66
2022/09/03 00:27:53;;;;;;;36.92;25.13;;;25.70;99.90;;;;;;5033362;28;20028;-67
2022/09/03 00:30:20;;;;;;;28.75;21.10;;;25.80;99.90;;;;;;5033026;28;20104;-67
2022/09/03 00:32:54;;;;;;;33.30;19.95;;;25.80;99.90;;;;;;5033475;28;20038;-67
2022/09/03 00:35:31;;;;;;;33.78;21.60;;;25.80;99.90;;;;;;5015938;28;20364;-67
2022/09/03 00:37:59;;;;;;;40.70;25.17;;;25.90;99.90;;;;;;5033777;28;20053;-67
2022/09/03 00:40:36;;;;;;;37.10;25.13;;;25.90;99.90;;;;;;5033638;28;20080;-67
2022/09/03 00:43:25;;;;;;;47.72;28.65;;;26.00;99.90;;;;;;5029957;28;20025;-67
2022/09/03 00:49:42;;;;;;;48.15;28.58;;;26.00;99.90;;;;;;4881396;29;20083;-67
2022/09/03 00:52:37;;;;;;;40.67;25.50;;;26.10;99.90;;;;;;4844618;29;20038;-67
2022/09/03 00:55:25;;;;;;;41.58;26.05;;;26.10;99.90;;;;;;4822399;29;20046;-66
2022/09/03 00:58:12;;;;;;;39.97;23.60;;;26.20;99.90;;;;;;4825917;29;20050;-67
2022/09/03 01:00:44;;;;;;;41.00;24.33;;;26.30;99.90;;;;;;4825318;29;20462;-64
2022/09/03 01:03:10;;;;;;;;;;;26.30;99.90;;;;;;4825032;29;20042;-67
2022/09/03 01:06:18;;;;;;;33.33;22.02;;;26.30;99.90;;;;;;4825400;29;19925;-67
2022/09/03 01:08:54;;;;;;;46.22;23.90;;;26.40;99.90;;;;;;4825280;29;20514;-68
2022/09/03 01:11:25;;;;;;;44.45;29.80;;;26.40;99.90;;;;;;4824705;29;20388;-68
2022/09/03 01:13:53;;;;;;;39.42;22.55;;;26.50;99.90;;;;;;4824959;29;20038;-66
2022/09/03 01:16:22;;;;;;;25.67;19.20;;;26.50;99.90;;;;;;4825498;29;20091;-67
2022/09/03 01:18:55;;;;;;;23.00;16.60;;;26.50;99.90;;;;;;4831446;29;20108;-67
2022/09/03 01:21:40;;;;;;;25.55;15.20;;;26.60;99.90;;;;;;4837616;29;20023;-68
2022/09/03 01:24:11;;;;;;;20.10;13.75;;;26.70;99.90;;;;;;4843133;29;20117;-66
2022/09/03 01:26:50;;;;;;;24.92;14.13;;;26.70;99.90;;;;;;4843358;29;20491;-70
2022/09/03 01:29:34;;;;;;;25.92;13.02;;;26.80;99.90;;;;;;4880138;29;20526;-69
2022/09/03 01:32:06;;;;;;;16.90;10.95;;;26.90;99.90;;;;;;4953461;28;20069;-67
2022/09/03 01:34:43;;;;;;;16.00;9.93;;;27.00;99.90;;;;;;5002281;28;20085;-70
2022/09/03 01:37:17;;;;;;;15.15;10.30;;;27.00;99.90;;;;;;4996866;28;20085;-71
2022/09/03 01:40:09;;;;;;;14.52;9.43;;;26.90;99.90;;;;;;5002715;28;20097;-71
2022/09/03 01:42:47;;;;;;;16.38;9.35;;;27.00;99.90;;;;;;4999021;28;20035;-71
2022/09/03 01:45:29;;;;;;;19.73;8.93;;;27.00;99.90;;;;;;5002476;28;20533;-70
2022/09/03 01:47:57;;;;;;;16.30;8.10;;;27.10;99.90;;;;;;5016282;28;20061;-70
2022/09/03 01:50:56;;;;;;;10.80;7.88;;;27.20;99.90;;;;;;5015991;28;20045;-69
2022/09/03 01:53:38;;;;;;;13.80;10.63;;;27.20;99.90;;;;;;5015533;28;20022;-70
2022/09/03 01:56:45;;;;;;;20.48;9.40;;;27.30;99.90;;;;;;5015576;28;20028;-68
2022/09/03 01:59:22;;;;;;;10.27;7.97;;;27.40;99.90;;;;;;5020996;28;20021;-68
2022/09/03 02:01:58;;;;;;;12.57;8.15;;;27.40;99.90;;;;;;5016561;28;20565;-70
2022/09/03 02:04:27;;;;;;;17.90;8.23;;;27.40;99.90;;;;;;5021351;28;20040;-71
2022/09/03 02:06:56;;;;;;;10.63;7.80;;;27.50;99.90;;;;;;4997092;28;20431;-73
2022/09/03 02:09:23;;;;;;;13.70;8.15;;;27.50;99.90;;;;;;5004584;28;20087;-69
2022/09/03 02:12:13;;;;;;;10.60;8.30;;;27.60;99.90;;;;;;5008218;28;20022;-70
2022/09/03 02:14:40;;;;;;;10.60;7.93;;;27.70;99.90;;;;;;5015535;28;20026;-69
2022/09/03 02:17:07;;;;;;;16.95;8.80;;;27.70;99.90;;;;;;5015252;28;20041;-68
2022/09/03 02:19:36;;;;;;;11.63;8.43;;;27.70;99.90;;;;;;5015762;28;20372;-68
2022/09/03 02:22:04;;;;;;;11.65;7.05;;;27.80;99.90;;;;;;5015883;28;20037;-67
2022/09/03 02:24:31;;;;;;;16.17;8.90;;;27.90;99.90;;;;;;4997810;28;20398;-68
2022/09/03 02:26:58;;;;;;;13.05;8.85;;;28.00;99.90;;;;;;5015508;28;20041;-68
2022/09/03 02:29:25;;;;;;;15.20;8.40;;;28.10;99.90;;;;;;5015248;28;20030;-67
2022/09/03 02:31:52;;;;;;;19.70;9.82;;;28.30;99.90;;;;;;4997569;28;20439;-67
2022/09/03 02:34:18;;;;;;;13.90;8.80;;;28.40;99.90;;;;;;5015223;28;20028;-67
2022/09/03 02:36:46;;;;;;;21.73;10.00;;;28.40;99.90;;;;;;5015216;28;20045;-67
2022/09/03 02:39:14;;;;;;;20.55;11.48;;;28.50;99.90;;;;;;5015192;28;20030;-67
2022/09/03 02:41:42;;;;;;;20.25;9.63;;;28.60;99.90;;;;;;5015199;28;20076;-68
2022/09/03 02:44:27;;;;;;;17.13;10.20;;;28.60;99.90;;;;;;5014890;28;20064;-67
2022/09/03 02:46:59;;;;;;;19.38;11.23;;;28.70;99.90;;;;;;5014805;28;20033;-68
2022/09/03 02:49:27;;;;;;;18.38;8.25;;;28.80;99.90;;;;;;5014805;28;20033;-67
2022/09/03 02:52:04;;;;;;;15.25;9.30;;;28.90;99.90;;;;;;5014877;28;20108;-67
2022/09/03 02:54:34;;;;;;;17.20;9.52;;;29.00;99.90;;;;;;5015729;28;20108;-68
2022/09/03 02:57:02;;;;;;;20.17;9.90;;;28.90;99.90;;;;;;5020962;28;20380;-68
2022/09/03 02:59:28;;;;;;;11.32;7.72;;;29.00;99.90;;;;;;5034808;28;20025;-67
2022/09/03 03:01:55;;;;;;;17.38;7.78;;;29.10;99.90;;;;;;5021700;28;20062;-71
2022/09/03 03:04:22;;;;;;;14.32;7.47;;;29.20;99.90;;;;;;5017931;28;20076;-73
2022/09/03 03:06:51;;;;;;;105.68;80.00;;;29.20;99.90;;;;;;5017619;28;20014;-73
2022/09/03 03:09:18;;;;;;;52.85;37.17;;;29.30;99.90;;;;;;5014889;28;20053;-71
2022/09/03 03:11:45;;;;;;;22.00;14.82;;;29.40;99.90;;;;;;5014775;28;20447;-72
2022/09/03 03:14:12;;;;;;;37.88;23.58;;;29.40;99.90;;;;;;5014911;28;20033;-72
2022/09/03 03:16:38;;;;;;;14.80;9.00;;;29.50;99.90;;;;;;5014487;28;20487;-72
2022/09/03 03:19:05;;;;;;;16.73;8.85;;;29.50;99.90;;;;;;5014341;28;20030;-70
2022/09/03 03:21:31;;;;;;;21.63;11.20;;;29.50;99.90;;;;;;5010988;28;20025;-74
2022/09/03 03:24:00;;;;;;;14.32;8.48;;;29.60;99.90;;;;;;5016340;28;20040;-74
2022/09/03 03:26:26;;;;;;;18.70;10.43;;;29.60;99.90;;;;;;5034412;28;20411;-71
2022/09/03 03:28:58;;;;;;;18.83;10.20;;;29.60;99.90;;;;;;5015769;28;20064;-69
2022/09/03 03:31:26;;;;;;;22.17;8.73;;;29.60;99.90;;;;;;5019017;28;20037;-69
2022/09/03 03:33:55;;;;;;;17.90;8.75;;;29.70;99.90;;;;;;5012927;28;20045;-69
2022/09/03 03:36:24;;;;;;;19.92;8.75;;;29.90;99.90;;;;;;5015522;28;20025;-71
2022/09/03 03:38:54;;;;;;;16.05;10.00;;;29.90;99.90;;;;;;5011981;28;20048;-70
2022/09/03 03:41:23;;;;;;;23.20;14.15;;;29.80;99.90;;;;;;5010170;28;20475;-70
2022/09/03 03:43:55;;;;;;;14.68;10.73;;;29.80;99.90;;;;;;5011611;28;20073;-70
2022/09/03 03:46:23;;;;;;;18.35;10.70;;;30.00;99.90;;;;;;5010075;28;20017;-72
2022/09/03 03:48:51;;;;;;;17.08;9.30;;;30.00;99.90;;;;;;5011279;28;20064;-74
2022/09/03 03:51:18;;;;;;;22.27;10.10;;;30.00;99.90;;;;;;5010023;28;20018;-71
2022/09/03 03:53:45;;;;;;;17.25;9.95;;;30.00;99.90;;;;;;5011093;28;20026;-72
2022/09/03 03:56:15;;;;;;;21.10;11.50;;;30.00;99.90;;;;;;5016846;28;20049;-71
2022/09/03 03:58:42;;;;;;;19.15;9.70;;;30.10;99.90;;;;;;5008916;28;20380;-70
2022/09/03 04:01:17;;;;;;;16.42;9.70;;;30.20;99.90;;;;;;5008783;28;20033;-70
2022/09/03 04:03:44;;;;;;;14.02;9.73;;;30.40;99.90;;;;;;5006610;28;20052;-72
2022/09/03 04:06:13;;;;;;;19.42;9.77;;;30.50;99.90;;;;;;5007509;28;20036;-71
2022/09/03 04:08:41;;;;;;;15.82;10.25;;;30.50;99.90;;;;;;5007838;28;20034;-70
2022/09/03 04:11:10;;;;;;;15.25;9.93;;;30.60;99.90;;;;;;5008483;28;20502;-73
2022/09/03 04:13:38;;;;;;;20.83;12.00;;;30.50;99.90;;;;;;5010309;28;20030;-73
2022/09/03 04:16:06;;;;;;;14.23;9.98;;;30.40;99.90;;;;;;5016387;28;20053;-71
2022/09/03 04:18:34;;;;;;;16.35;10.57;;;30.30;99.90;;;;;;5010643;28;20550;-72
2022/09/03 04:21:07;;;;;;;16.70;12.30;;;30.30;99.90;;;;;;5010261;28;20373;-70
2022/09/03 04:23:37;;;;;;;16.58;10.20;;;30.40;99.90;;;;;;5015641;28;20481;-70
2022/09/03 04:26:05;;;;;;;22.35;12.77;;;30.50;99.90;;;;;;5006285;28;20026;-69
2022/09/03 04:28:32;;;;;;;21.55;12.52;;;30.50;99.90;;;;;;5015344;28;20498;-73
2022/09/03 04:31:02;;;;;;;19.92;10.07;;;30.50;99.90;;;;;;5012267;28;20462;-71
2022/09/03 04:33:30;;;;;;;11.52;7.43;;;30.50;99.90;;;;;;5012078;28;20033;-71
2022/09/03 04:36:09;;;;;;;12.45;7.50;;;30.50;99.90;;;;;;5011490;28;20436;-72
2022/09/03 04:38:38;;;;;;;14.13;6.75;;;30.70;99.90;;;;;;5011509;28;20394;-73
2022/09/03 04:41:07;;;;;;;14.45;7.95;;;30.70;99.90;;;;;;5010757;28;20033;-72
2022/09/03 04:43:34;;;;;;;17.15;10.32;;;30.70;99.90;;;;;;5010222;28;20026;-71
2022/09/03 04:46:03;;;;;;;14.20;7.35;;;30.60;99.90;;;;;;5013919;28;20025;-73
2022/09/03 04:48:31;;;;;;;15.07;6.38;;;30.70;99.90;;;;;;5015649;28;20101;-68
2022/09/03 04:51:16;;;;;;;13.68;7.10;;;30.90;99.90;;;;;;5012905;28;20105;-66
2022/09/03 04:53:44;;;;;;;11.90;6.20;;;31.00;99.90;;;;;;5011941;28;20033;-66
2022/09/03 04:56:21;;;;;;;11.00;7.00;;;31.10;99.90;;;;;;5013353;28;20034;-67
2022/09/03 04:58:53;;;;;;;15.35;8.07;;;31.30;99.90;;;;;;5012447;28;20120;-66
2022/09/03 05:01:21;;;;;;;10.80;6.22;;;31.40;99.90;;;;;;5015511;28;20049;-69
2022/09/03 05:03:51;;;;;;;14.23;7.25;;;31.30;99.90;;;;;;5014074;28;20036;-68
2022/09/03 05:06:17;;;;;;;17.92;8.05;;;31.20;99.90;;;;;;5012269;28;20033;-67
2022/09/03 05:08:48;;;;;;;15.20;7.38;;;31.30;99.90;;;;;;5012171;28;20101;-71
2022/09/03 05:11:14;;;;;;;14.73;7.20;;;31.30;99.90;;;;;;5012193;28;20092;-72
2022/09/03 05:13:41;;;;;;;19.27;8.32;;;31.20;99.90;;;;;;5012420;28;20051;-73
2022/09/03 05:16:11;;;;;;;12.13;7.32;;;31.10;99.90;;;;;;5010370;28;20414;-73
2022/09/03 05:18:41;;;;;;;9.50;6.40;;;31.20;99.90;;;;;;5011232;28;20038;-69
2022/09/03 05:21:11;;;;;;;18.20;8.45;;;31.20;99.90;;;;;;5011617;28;20033;-67
2022/09/03 05:23:42;;;;;;;20.92;7.70;;;31.20;99.90;;;;;;5017483;28;20022;-68
2022/09/03 05:26:19;;;;;;;14.75;8.73;;;31.10;99.90;;;;;;5009470;28;20041;-68
2022/09/03 05:28:46;;;;;;;14.30;7.53;;;31.10;99.90;;;;;;5009773;28;20072;-66
2022/09/03 05:31:17;;;;;;;16.13;9.18;;;31.10;99.90;;;;;;5013019;28;20085;-68
2022/09/03 05:33:48;;;;;;;17.35;7.40;;;31.20;99.90;;;;;;5015212;28;20049;-68
2022/09/03 05:36:17;;;;;;;13.88;8.60;;;31.40;99.90;;;;;;4996448;28;20522;-68
2022/09/03 05:38:44;;;;;;;54.08;33.92;;;31.40;99.90;;;;;;5016170;28;20029;-69
2022/09/03 05:41:13;;;;;;;32.03;21.25;;;31.40;99.90;;;;;;5015899;28;20021;-67
2022/09/03 05:43:40;;;;;;;34.15;22.25;;;31.30;99.90;;;;;;5012766;28;20033;-70
2022/09/03 05:46:10;;;;;;;23.52;9.18;;;31.30;99.90;;;;;;5014293;28;20084;-67
2022/09/03 05:48:38;;;;;;;29.60;17.23;;;31.30;99.90;;;;;;5012405;28;20105;-68
2022/09/03 05:51:08;;;;;;;27.80;19.77;;;31.50;99.90;;;;;;5014240;28;20026;-72
2022/09/03 05:53:38;;;;;;;15.93;7.82;;;31.70;99.90;;;;;;4997545;28;20034;-71
2022/09/03 05:56:10;;;;;;;17.13;11.02;;;31.70;99.90;;;;;;5001471;28;20121;-71
2022/09/03 05:58:39;;;;;;;14.07;7.63;;;31.90;99.90;;;;;;5016451;28;20037;-69
2022/09/03 06:01:18;;;;;;;14.73;7.78;;;31.70;99.90;;;;;;5015629;28;20212;-70
2022/09/03 06:03:46;;;;;;;16.67;8.55;;;31.60;99.90;;;;;;5014967;28;20379;-68
2022/09/03 06:06:13;;;;;;;13.00;7.75;;;31.60;99.90;;;;;;5021195;28;20472;-67
2022/09/03 06:08:41;;;;;;;13.18;7.97;;;31.50;99.90;;;;;;5030047;28;20030;-67
2022/09/03 06:11:08;;;;;;;12.65;8.80;;;31.40;99.90;;;;;;5019064;28;20065;-68
2022/09/03 06:13:35;;;;;;;20.25;9.55;;;31.50;99.90;;;;;;5017041;28;20119;-69
2022/09/03 06:16:05;;;;;;;11.40;8.15;;;31.60;99.90;;;;;;5015660;28;20553;-67
2022/09/03 06:18:32;;;;;;;12.98;10.00;;;31.80;99.90;;;;;;5011065;28;20034;-68
2022/09/03 06:21:03;;;;;;;19.67;9.98;;;31.80;99.90;;;;;;5014675;28;20430;-67
2022/09/03 06:23:30;;;;;;;20.90;11.57;;;31.90;99.90;;;;;;5014738;28;20471;-68
2022/09/03 06:26:10;;;;;;;13.75;7.40;;;32.00;99.90;;;;;;5014755;28;20034;-68
2022/09/03 06:28:39;;;;;;;14.10;7.88;;;32.20;99.90;;;;;;5014532;28;20013;-69
2022/09/03 06:31:08;;;;;;;14.27;10.68;;;32.20;99.90;;;;;;5014408;28;20049;-68
2022/09/03 06:33:36;;;;;;;16.40;7.88;;;32.20;99.90;;;;;;5014117;28;20033;-69
2022/09/03 06:36:06;;;;;;;14.05;8.57;;;32.30;99.90;;;;;;5016055;28;20041;-69
2022/09/03 06:38:35;;;;;;;12.02;8.43;;;32.40;99.90;;;;;;5015901;28;20485;-70
2022/09/03 06:41:05;;;;;;;52.72;36.55;;;32.30;99.90;;;;;;5014362;28;20458;-69
2022/09/03 06:43:34;;;;;;;168.77;103.72;;;32.30;99.90;;;;;;5011690;28;20029;-68
2022/09/03 06:46:03;;;;;;;125.43;74.88;;;32.40;99.90;;;;;;5012862;28;20029;-68
2022/09/03 06:48:32;;;;;;;36.15;19.55;;;32.60;99.90;;;;;;5015828;28;20033;-69
2022/09/03 06:51:01;;;;;;;18.75;10.52;;;32.50;99.90;;;;;;5013100;28;20590;-72
2022/09/03 06:53:30;;;;;;;33.55;21.15;;;32.50;99.90;;;;;;5012602;28;20025;-69
2022/09/03 06:56:00;;;;;;;54.95;36.40;;;32.60;99.90;;;;;;5010917;28;20036;-67
2022/09/03 06:58:31;;;;;;;20.35;10.55;;;32.60;99.90;;;;;;5013182;28;20495;-66
2022/09/03 07:01:09;;;;;;;12.98;7.43;;;32.60;99.90;;;;;;5011494;28;20026;-67
2022/09/03 07:03:37;;;;;;;18.33;10.30;;;32.70;99.90;;;;;;5010668;28;20503;-67
2022/09/03 07:06:07;;;;;;;32.05;19.58;;;32.60;99.90;;;;;;5013453;28;20032;-67
2022/09/03 07:08:34;;;;;;;69.07;42.47;;;32.50;99.90;;;;;;5014265;28;20097;-71
2022/09/03 07:11:04;;;;;;;26.55;17.23;;;32.50;99.90;;;;;;5014460;28;20110;-67
2022/09/03 07:13:32;;;;;;;13.60;8.02;;;32.30;99.90;;;;;;5014375;28;20022;-68
2022/09/03 07:16:03;;;;;;;20.48;9.07;;;32.20;99.90;;;;;;5013975;28;20030;-65
2022/09/03 07:18:31;;;;;;;27.75;13.23;;;32.30;99.90;;;;;;5015940;28;20402;-67
2022/09/03 07:21:05;;;;;;;28.02;13.88;;;32.40;99.90;;;;;;5010717;28;20028;-69
2022/09/03 07:23:34;;;;;;;25.50;11.60;;;32.50;99.90;;;;;;5013290;28;20053;-69
2022/09/03 07:26:03;;;;;;;22.95;11.73;;;32.50;99.90;;;;;;5010803;28;20088;-67
2022/09/03 07:28:31;;;;;;;23.15;12.80;;;32.50;99.90;;;;;;5013293;28;20044;-67
2022/09/03 07:31:20;;;;;;;19.25;10.40;;;32.40;99.90;;;;;;5013048;28;20403;-67
2022/09/03 07:33:47;;;;;;;29.05;13.30;;;32.30;99.90;;;;;;5011372;28;20125;-66
2022/09/03 07:36:16;;;;;;;20.52;10.73;;;32.40;99.90;;;;;;5013251;28;20054;-66
2022/09/03 07:38:43;;;;;;;19.17;8.98;;;32.50;99.90;;;;;;5014565;28;20034;-72
2022/09/03 07:41:12;;;;;;;27.10;13.13;;;32.50;99.90;;;;;;5015966;28;20061;-66
2022/09/03 07:43:43;;;;;;;24.92;17.08;;;32.60;99.90;;;;;;5010139;28;20026;-66
2022/09/03 07:46:12;;;;;;;10.52;6.97;;;32.60;99.90;;;;;;5013907;28;20026;-66
2022/09/03 07:48:42;;;;;;;18.30;7.60;;;32.50;99.90;;;;;;5013344;28;20026;-66
2022/09/03 07:51:09;;;;;;;19.27;8.18;;;32.50;99.90;;;;;;5011196;28;20025;-65
2022/09/03 07:53:36;;;;;;;26.27;10.55;;;32.50;99.90;;;;;;5013293;28;20129;-67
2022/09/03 07:56:06;;;;;;;16.75;9.57;;;32.50;99.90;;;;;;5013321;28;20080;-67
2022/09/03 07:58:34;;;;;;;30.05;12.65;;;32.60;99.90;;;;;;5016221;28;20022;-68
2022/09/03 08:01:11;;;;;;;28.58;12.05;;;32.70;99.90;;;;;;5017224;28;20096;-66
2022/09/03 08:03:42;;;;;;;12.85;6.45;;;32.80;99.90;;;;;;5016626;28;20104;-67
2022/09/03 08:06:13;;;;;;;13.70;7.47;;;32.80;99.90;;;;;;5012770;28;20022;-68
2022/09/03 08:08:40;;;;;;;13.60;8.38;;;32.80;99.90;;;;;;5013593;28;20535;-69
2022/09/03 08:11:19;;;;;;;9.57;6.78;;;32.80;99.90;;;;;;5013454;28;20029;-67
2022/09/03 08:13:56;;;;;;;24.15;10.82;;;32.80;99.90;;;;;;5012649;28;20475;-68
2022/09/03 08:16:23;;;;;;;10.50;7.40;;;32.80;99.90;;;;;;5013013;28;20394;-67
2022/09/03 08:18:50;;;;;;;16.95;9.05;;;32.90;99.90;;;;;;5012694;28;20022;-67
2022/09/03 08:21:18;;;;;;;19.67;8.18;;;32.90;99.90;;;;;;5013084;28;20116;-67
2022/09/03 08:23:47;;;;;;;17.65;8.38;;;32.90;99.80;;;;;;5011097;28;20025;-67
2022/09/03 08:26:17;;;;;;;9.98;6.60;;;32.90;99.90;;;;;;5011627;28;20030;-67
2022/09/03 08:28:44;;;;;;;13.00;7.28;;;32.80;99.70;;;;;;5012050;28;20022;-67
2022/09/03 08:31:17;;;;;;;11.93;6.75;;;32.80;99.90;;;;;;5011154;28;20557;-67
2022/09/03 08:33:47;;;;;;;13.18;7.40;;;32.80;99.90;;;;;;4993590;28;20444;-66
2022/09/03 08:36:21;;;;;;;17.80;9.73;;;32.80;99.90;;;;;;5016635;28;20022;-68
2022/09/03 08:38:49;;;;;;;19.02;7.70;;;32.70;99.90;;;;;;5021422;28;20034;-66
2022/09/03 08:41:29;;;;;;;15.20;7.22;;;32.70;99.90;;;;;;5024571;28;20038;-67
2022/09/03 08:44:04;;;;;;;12.80;7.78;;;32.70;99.90;;;;;;5033069;28;20163;-66
2022/09/03 08:46:54;;;;;;;13.50;6.50;;;32.70;99.90;;;;;;5033109;28;20483;-66
2022/09/03 08:49:34;;;;;;;9.40;6.90;;;32.70;99.90;;;;;;4952803;29;20035;-65
2022/09/03 08:52:04;;;;;;;9.98;6.40;;;32.70;99.90;;;;;;4953128;29;20035;-64
2022/09/03 08:54:32;;;;;;;13.52;6.47;;;32.70;99.90;;;;;;4952935;29;20034;-65
2022/09/03 08:57:02;;;;;;;9.70;6.10;;;32.70;99.90;;;;;;4952888;29;20223;-65
2022/09/03 08:59:31;;;;;;;11.20;6.50;;;32.70;99.90;;;;;;4952847;29;20034;-64
2022/09/03 09:02:10;;;;;;;14.32;7.75;;;32.70;99.90;;;;;;4952597;29;20058;-65
2022/09/03 09:04:49;;;;;;;10.93;7.60;;;32.80;99.90;;;;;;4952585;29;20028;-65
2022/09/03 09:07:21;;;;;;;13.48;7.68;;;32.80;99.90;;;;;;4952575;28;20453;-65
2022/09/03 09:09:53;;;;;;;14.57;8.43;;;32.70;99.90;;;;;;4955970;29;20081;-65
2022/09/03 09:12:43;;;;;;;10.98;7.55;;;32.80;99.90;;;;;;4956206;29;20020;-66
2022/09/03 09:15:29;;;;;;;13.82;7.88;;;32.80;99.60;;;;;;4956379;29;20094;-66
2022/09/03 09:18:21;;;;;;;12.80;7.40;;;32.80;99.90;;;;;;4956339;29;20098;-66
2022/09/03 09:21:20;;;;;;;13.40;8.40;;;32.80;99.90;;;;;;4939841;29;20493;-66
2022/09/03 09:23:48;;;;;;;9.63;6.90;;;32.70;99.40;;;;;;4956064;29;20505;-66
2022/09/03 09:26:17;;;;;;;17.23;9.25;;;32.70;99.90;;;;;;4956216;29;20071;-66
2022/09/03 09:28:47;;;;;;;15.32;8.45;;;32.70;99.40;;;;;;4956206;29;20524;-66
2022/09/03 09:31:17;;;;;;;12.10;8.10;;;32.70;99.50;;;;;;4955730;29;20079;-67
2022/09/03 09:33:45;;;;;;;12.80;8.25;;;32.70;99.60;;;;;;4956127;29;20583;-66
2022/09/03 09:36:15;;;;;;;16.13;8.25;;;32.70;99.50;;;;;;4955972;29;20062;-66
2022/09/03 09:38:45;;;;;;;16.02;11.02;;;32.70;99.90;;;;;;4955655;29;20038;-66
2022/09/03 09:41:16;;;;;;;17.65;11.13;;;32.70;99.90;;;;;;4955938;29;20513;-66
2022/09/03 09:43:44;;;;;;;15.65;9.32;;;32.70;99.80;;;;;;4955857;29;20031;-66
2022/09/03 09:46:14;;;;;;;12.15;8.45;;;32.70;99.90;;;;;;5013059;28;20030;-66
2022/09/03 09:48:59;;;;;;;21.48;11.85;;;32.70;99.10;;;;;;5036014;28;20040;-66
2022/09/03 09:51:30;;;;;;;26.27;15.07;;;32.50;99.70;;;;;;5035763;28;20547;-65
2022/09/03 09:54:00;;;;;;;38.58;21.45;;;32.60;99.90;;;;;;5035917;28;20029;-66
2022/09/03 09:56:27;;;;;;;30.45;18.88;;;32.60;99.90;;;;;;5035614;28;20037;-65
2022/09/03 09:59:06;;;;;;;17.42;10.82;;;32.60;99.90;;;;;;5035828;28;20542;-66
2022/09/03 10:01:35;;;;;;;16.65;12.30;;;32.50;99.80;;;;;;5035844;28;20064;-66
2022/09/03 10:04:20;;;;;;;14.50;9.80;;;32.50;99.50;;;;;;5035419;28;20499;-66
2022/09/03 10:06:55;;;;;;;16.80;10.20;;;32.40;99.70;;;;;;5035680;28;20101;-66
2022/09/03 10:09:26;;;;;;;20.73;11.85;;;32.40;99.90;;;;;;5035859;28;20021;-66
2022/09/03 10:12:13;;;;;;;17.88;10.27;;;32.40;99.90;;;;;;5035595;28;20097;-67
2022/09/03 10:14:49;;;;;;;19.30;12.30;;;32.30;99.90;;;;;;5035500;28;20383;-66
2022/09/03 10:17:22;;;;;;;23.85;13.80;;;32.40;99.90;;;;;;5035498;28;20036;-66
2022/09/03 10:22:56;;;;;;;30.52;18.17;;;32.40;99.90;;;;;;5035010;28;20449;-66
2022/09/03 10:25:28;;;;;;;34.72;20.77;;;32.30;99.90;;;;;;5035315;28;20025;-65
2022/09/03 10:27:55;;;;;;;;;;;32.20;99.90;;;;;;5035724;28;20025;-66
2022/09/03 10:30:22;;;;;;;28.05;15.60;;;32.20;99.80;;;;;;5035052;28;19912;-66
2022/09/03 10:33:12;;;;;;;39.97;20.20;;;32.20;99.90;;;;;;5035040;28;20041;-66
2022/09/03 10:35:51;;;;;;;35.97;20.35;;;32.20;99.90;;;;;;5034912;28;20453;-66
2022/09/03 10:38:38;;;;;;;24.13;16.10;;;32.10;99.90;;;;;;5034961;28;20098;-67
2022/09/03 10:41:22;;;;;;;32.03;17.55;;;32.10;99.90;;;;;;5035242;28;20391;-66
2022/09/03 10:44:02;;;;;;;32.58;19.45;;;32.10;99.90;;;;;;5034645;28;20026;-66
2022/09/03 10:46:54;;;;;;;32.03;18.88;;;32.10;99.90;;;;;;5034772;28;20033;-66
2022/09/03 10:49:31;;;;;;;29.70;20.75;;;32.00;99.90;;;;;;4973479;28;20042;-66
2022/09/03 10:52:14;;;;;;;32.78;19.17;;;32.00;99.90;;;;;;4973753;28;20027;-66
2022/09/03 10:54:58;;;;;;;31.70;18.35;;;32.00;99.90;;;;;;4973830;28;20034;-67
2022/09/03 10:58:04;;;;;;;34.47;18.38;;;32.00;99.90;;;;;;4973648;28;20051;-66
2022/09/03 11:00:36;;;;;;;41.67;22.13;;;32.00;99.90;;;;;;4973615;28;20539;-66
2022/09/03 11:03:11;;;;;;;32.95;19.70;;;32.00;99.90;;;;;;4973367;28;20058;-67
2022/09/03 11:05:56;;;;;;;36.78;21.95;;;32.00;99.90;;;;;;4973656;28;20487;-67
2022/09/03 11:08:31;;;;;;;36.25;23.38;;;31.90;99.90;;;;;;4973756;28;20118;-66
2022/09/03 11:11:14;;;;;;;45.45;23.80;;;32.00;99.90;;;;;;4973415;28;20023;-66
2022/09/03 11:13:59;;;;;;;40.00;24.75;;;32.00;99.90;;;;;;4973419;28;20477;-66
2022/09/03 11:16:32;;;;;;;40.22;25.20;;;31.90;99.90;;;;;;4973368;28;20034;-66
2022/09/03 11:19:21;;;;;;;43.58;27.23;;;31.90;99.90;;;;;;4973701;28;20027;-66
2022/09/03 11:21:48;;;;;;;47.85;29.42;;;31.90;99.90;;;;;;4934548;29;20161;-66
2022/09/03 11:24:21;;;;;;;45.97;29.05;;;31.90;99.90;;;;;;4934678;29;20537;-66
2022/09/03 11:26:57;;;;;;;51.03;31.17;;;31.90;99.90;;;;;;4934761;29;20392;-66
2022/09/03 11:29:30;;;;;;;51.20;31.48;;;31.90;99.90;;;;;;4934798;29;20043;-66
2022/09/03 11:32:06;;;;;;;50.65;31.17;;;31.90;99.90;;;;;;4934387;29;20489;-66
2022/09/03 11:34:53;;;;;;;55.30;31.25;;;31.90;99.90;;;;;;4934494;29;20031;-66
2022/09/03 11:37:23;;;;;;;68.60;42.42;;;31.80;99.90;;;;;;4934603;29;20086;-66
2022/09/03 11:40:12;;;;;;;41.53;23.38;;;31.70;99.90;;;;;;4934370;29;20039;-66
2022/09/03 11:42:41;;;;;;;34.78;19.02;;;31.50;99.90;;;;;;4934583;29;20028;-66
2022/09/03 11:45:30;;;;;;;26.52;14.85;;;31.40;99.90;;;;;;4934309;29;20499;-66
2022/09/03 11:47:57;;;;;;;26.73;14.02;;;31.20;99.90;;;;;;4934394;28;20118;-66
2022/09/03 11:50:29;;;;;;;30.50;15.05;;;31.10;99.90;;;;;;4934275;29;20522;-65
2022/09/03 11:53:09;;;;;;;26.38;17.55;;;31.00;99.90;;;;;;4965822;28;20042;-66
2022/09/03 11:56:04;;;;;;;30.33;17.45;;;30.90;99.90;;;;;;4972558;28;20027;-66
2022/09/03 11:58:35;;;;;;;24.95;14.98;;;30.90;99.90;;;;;;4972609;28;20081;-65
2022/09/03 12:01:07;;;;;;;22.83;13.70;;;30.80;99.90;;;;;;4972741;28;20050;-65
2022/09/03 12:03:49;;;;;;;20.40;13.32;;;30.70;99.90;;;;;;4972515;28;20037;-66
2022/09/03 12:06:26;;;;;;;25.58;15.43;;;30.70;99.90;;;;;;4972591;28;20035;-66
2022/09/03 12:08:54;;;;;;;24.83;14.55;;;30.70;99.90;;;;;;4972599;28;20035;-66
2022/09/03 12:11:36;;;;;;;21.80;12.30;;;30.60;99.90;;;;;;4972367;28;20085;-66
2022/09/03 12:14:12;;;;;;;23.10;13.48;;;30.40;99.90;;;;;;4972525;28;20030;-66
2022/09/03 12:17:15;;;;;;;26.98;14.05;;;30.30;99.90;;;;;;4972241;28;20121;-66
2022/09/03 12:19:59;;;;;;;21.20;11.98;;;30.10;99.90;;;;;;5033084;28;20028;-66
2022/09/03 12:22:28;;;;;;;19.45;9.77;;;30.00;99.90;;;;;;5033271;28;20116;-65
2022/09/03 12:24:55;;;;;;;13.70;9.43;;;30.00;99.90;;;;;;5032899;28;20029;-65
2022/09/03 12:27:24;;;;;;;10.85;6.38;;;29.90;99.90;;;;;;5033313;28;20429;-66
2022/09/03 12:29:55;;;;;;;14.15;6.63;;;29.80;99.90;;;;;;5033183;28;20020;-65
2022/09/03 12:32:22;;;;;;;13.93;6.97;;;29.80;99.90;;;;;;5032696;28;20407;-65
2022/09/03 12:34:48;;;;;;;21.27;6.82;;;29.70;99.90;;;;;;5033031;28;20029;-65
2022/09/03 12:37:35;;;;;;;16.25;7.82;;;29.70;99.90;;;;;;5033050;28;20087;-66
2022/09/03 12:40:02;;;;;;;22.52;10.55;;;29.70;99.90;;;;;;5033032;28;20497;-66
2022/09/03 12:42:31;;;;;;;22.77;10.75;;;29.50;99.90;;;;;;5033116;28;20025;-66
2022/09/03 12:45:19;;;;;;;22.75;12.68;;;29.40;99.90;;;;;;5036796;28;20065;-66
2022/09/03 12:47:45;;;;;;;20.67;10.77;;;29.30;99.90;;;;;;5037178;28;20364;-66
2022/09/03 12:50:15;;;;;;;20.17;9.52;;;29.20;99.90;;;;;;5036926;28;20056;-66
2022/09/03 12:52:49;;;;;;;15.88;7.72;;;29.10;99.90;;;;;;5037086;28;20033;-66
2022/09/03 12:55:22;;;;;;;14.30;7.47;;;29.00;99.90;;;;;;5036961;28;20471;-66
2022/09/03 12:57:56;;;;;;;20.67;8.05;;;29.00;99.90;;;;;;5037009;28;20025;-66
2022/09/03 13:00:23;;;;;;;13.60;7.93;;;29.00;99.90;;;;;;5036950;28;20053;-66
2022/09/03 13:03:04;;;;;;;14.93;8.00;;;29.10;99.90;;;;;;5036605;28;20044;-66
2022/09/03 13:05:54;;;;;;;16.13;8.23;;;29.20;99.90;;;;;;5036770;28;20024;-66
2022/09/03 13:08:25;;;;;;;16.75;8.48;;;29.10;99.90;;;;;;5034281;28;20044;-65
2022/09/03 13:10:55;;;;;;;10.35;6.40;;;28.90;99.90;;;;;;5036685;28;20544;-65